PDT,Max TemperatureF,Mean TemperatureF,Min TemperatureF,Max Dew PointF,MeanDew PointF,Min DewpointF,Max Humidity, Mean Humidity, Min Humidity, Max Sea Level PressureIn, Mean Sea Level PressureIn, Min Sea Level PressureIn, Max VisibilityMiles, Mean VisibilityMiles, Min VisibilityMiles, Max Wind SpeedMPH, Mean Wind SpeedMPH, Max Gust SpeedMPH,PrecipitationIn, CloudCover, Events, WindDirDegrees
2012-10-1,93,71,49,46,43,39,74,45,15,30.18,30.08,29.97,10,10,10,9,1,13,0.00,0,,349
2012-10-2,88,69,50,47,44,40,74,48,22,30.09,30.02,29.92,10,10,10,13,2,16,0.00,0,,310
2012-10-3,86,66,45,45,37,26,77,45,12,30.08,30.00,29.89,10,10,10,8,1,10,0.00,0,,259
2012-10-4,86,65,44,38,33,27,71,43,15,30.10,30.03,29.97,10,10,10,14,2,17,0.00,0,,350
2012-10-5,80,61,42,45,36,30,65,41,17,30.11,30.05,29.96,10,10,10,10,2,13,0.00,0,,297
2012-10-6,81,62,43,42,37,30,82,49,16,30.11,30.02,29.90,10,10,10,9,2,12,0.00,0,,244
2012-10-7,84,63,41,38,32,25,73,43,12,30.04,29.94,29.83,10,10,7,7,2,9,0.00,0,,255
2012-10-8,77,60,43,43,38,33,70,50,29,30.02,29.95,29.88,10,10,10,13,3,17,0.00,0,,319
2012-10-9,77,61,45,43,41,38,76,52,27,30.07,30.00,29.92,10,10,10,8,2,10,0.00,0,,294
2012-10-10,80,61,41,42,39,35,82,54,25,30.03,29.94,29.84,10,10,10,7,1,8,0.00,0,,184
2012-10-11,81,61,40,41,39,36,82,52,21,29.95,29.86,29.74,10,10,10,8,1,10,0.00,0,,356
2012-10-12,75,59,42,50,38,32,76,52,27,30.16,29.98,29.86,10,10,9,14,4,20,0.03,2,Rain,337
2012-10-13,71,62,52,55,52,51,93,75,57,30.32,30.25,30.18,10,6,2,8,2,10,0.20,6,Rain,30
2012-10-14,68,58,47,56,50,46,100,79,58,30.23,30.18,30.08,10,6,0,6,1,8,T,5,Fog-Rain,309
2012-10-15,69,64,58,59,57,55,97,83,68,30.12,30.02,29.91,10,8,2,8,2,12,0.62,8,Rain,337
2012-10-16,68,56,44,61,51,39,100,69,37,30.23,30.06,29.90,10,9,2,15,5,17,0.16,6,Rain,358
2012-10-17,69,54,38,47,40,35,100,64,28,30.25,30.20,30.10,10,7,0,9,1,12,0.00,2,Fog,30
2012-10-18,76,57,37,47,41,35,93,60,27,30.17,30.06,29.96,10,10,5,7,1,8,0.00,0,,165
2012-10-19,70,59,47,55,48,43,93,68,42,30.04,29.98,29.89,10,10,10,21,3,25,0.03,5,Rain,317
2012-10-20,56,49,42,52,44,38,100,78,55,30.01,29.97,29.93,10,10,9,9,3,12,0.01,6,,353
2012-10-21,58,46,34,44,36,32,100,71,41,29.98,29.89,29.73,10,9,2,9,2,12,0.04,6,Rain,323
2012-10-22,54,48,42,44,40,36,93,77,61,29.77,29.69,29.61,10,10,2,13,4,17,0.22,7,Rain,330
2012-10-23,54,47,40,40,37,32,86,66,45,29.97,29.89,29.80,10,10,4,9,3,13,0.10,7,Rain,355
2012-10-24,50,46,41,43,40,38,92,82,71,30.23,30.06,29.91,10,10,6,13,3,17,0.07,7,Rain,350
2012-10-25,58,50,42,41,40,38,96,74,51,30.40,30.33,30.23,10,10,7,7,1,9,0.00,6,Rain,325
2012-10-26,61,51,41,46,42,39,93,72,51,30.34,30.27,30.19,10,10,10,7,1,8,T,7,Rain,331
2012-10-27,57,52,47,52,48,44,93,88,83,30.22,30.17,30.12,10,8,2,6,0,7,0.04,8,Rain,234
2012-10-28,66,59,51,54,52,50,100,84,67,30.15,30.07,30.00,10,7,2,8,2,9,0.00,6,,147
2012-10-29,70,59,47,53,50,46,100,77,53,30.16,30.10,30.04,10,5,0,9,3,13,0.01,4,Fog-Rain,347
2012-10-30,66,56,46,54,50,46,100,82,63,30.05,29.97,29.83,10,5,0,6,1,7,0.00,4,Fog,338
2012-10-31,58,53,47,52,47,42,100,79,57,29.87,29.79,29.72,10,4,0,20,4,25,0.42,6,Fog-Rain,53